| Date | Time | Temp. (oF) | Dew Point (oF) | Rel. Hum. (%) | Press. (in.) | Wind Dir. | Wind Speed (mph) | Hourly Rainfall (in.) |
|
|---|---|---|---|---|---|---|---|---|---|
| 1 | 07/03 | 00:00 | 61 | 58 | 92 | 30.03 | SW | 0 | 0.00 |
| 2 | 07/02 | 23:00 | 64 | 58 | 83 | 30.04 | SSE | 0 | 0.00 |
| 3 | 07/02 | 22:00 | 65 | 58 | 80 | 30.04 | S | 0 | 0.00 |
| 4 | 07/02 | 21:00 | 67 | 58 | 75 | 30.02 | S | 0 | 0.00 |
| 5 | 07/02 | 20:00 | 70 | 57 | 65 | 30.01 | SW | 0 | 0.00 |
| 6 | 07/02 | 19:00 | 72 | 56 | 59 | 30.00 | SSW | 0 | 0.00 |
| 7 | 07/02 | 18:00 | 73 | 55 | 55 | 29.99 | S | 0 | 0.00 |
| 8 | 07/02 | 17:00 | 73 | 55 | 54 | 29.98 | N | 3 | 0.00 |
| 9 | 07/02 | 16:00 | 77 | 53 | 45 | 29.98 | N | 12 | 0.00 |
| 10 | 07/02 | 15:00 | 76 | 54 | 47 | 29.99 | N | 4 | 0.00 |
| 11 | 07/02 | 14:00 | 76 | 55 | 50 | 29.99 | WSW | 0 | 0.00 |
| 12 | 07/02 | 13:00 | 75 | 58 | 56 | 29.99 | NNE | 7 | 0.00 |
| 13 | 07/02 | 12:00 | 73 | 57 | 58 | 30.00 | NNW | 6 | 0.00 |
| 14 | 07/02 | 11:00 | 71 | 55 | 58 | 30.00 | NNE | 5 | 0.00 |
| 15 | 07/02 | 10:00 | 68 | 57 | 70 | 30.00 | N | 8 | 0.00 |
| 16 | 07/02 | 09:00 | 67 | 56 | 70 | 29.99 | NNE | 8 | 0.00 |
| 17 | 07/02 | 08:00 | 65 | 56 | 74 | 29.97 | NNW | 9 | 0.00 |
| 18 | 07/02 | 07:00 | 63 | 58 | 86 | 29.96 | SW | 4 | 0.00 |
| 19 | 07/02 | 06:00 | 64 | 59 | 84 | 29.93 | WSW | 4 | 0.00 |
| 20 | 07/02 | 05:00 | 66 | 60 | 83 | 29.90 | WSW | 6 | 0.00 |
| 21 | 07/02 | 04:00 | 68 | 61 | 80 | 29.88 | NNE | 0 | 0.00 |
| 22 | 07/02 | 03:00 | 70 | 63 | 79 | 29.87 | WSW | 4 | 0.00 |
| 23 | 07/02 | 02:00 | 71 | 63 | 76 | 29.88 | N | 3 | 0.00 |
| 24 | 07/02 | 01:00 | 71 | 70 | 98 | 29.86 | N | 7 | 0.00 |